sensor_id;sensor_type;location;lat;lon;timestamp;P1;durP1;ratioP1;P2;durP2;ratioP2
82952;SDS011;74888;40.196;44.560;2024-02-21T00:02:19;11.70;;;4.63;;
82952;SDS011;74888;40.196;44.560;2024-02-21T00:04:44;10.43;;;4.88;;
82952;SDS011;74888;40.196;44.560;2024-02-21T00:07:10;9.25;;;3.85;;
82952;SDS011;74888;40.196;44.560;2024-02-21T00:09:36;9.88;;;4.65;;
82952;SDS011;74888;40.196;44.560;2024-02-21T00:12:01;9.95;;;4.50;;
82952;SDS011;74888;40.196;44.560;2024-02-21T00:14:28;9.82;;;4.15;;
82952;SDS011;74888;40.196;44.560;2024-02-21T00:16:53;8.77;;;4.40;;
82952;SDS011;74888;40.196;44.560;2024-02-21T00:22:40;12.48;;;4.78;;
82952;SDS011;74888;40.196;44.560;2024-02-21T00:25:06;15.55;;;6.72;;
82952;SDS011;74888;40.196;44.560;2024-02-21T00:27:33;15.98;;;7.22;;
82952;SDS011;74888;40.196;44.560;2024-02-21T00:29:58;17.27;;;7.82;;
82952;SDS011;74888;40.196;44.560;2024-02-21T00:32:24;19.35;;;8.38;;
82952;SDS011;74888;40.196;44.560;2024-02-21T00:34:49;21.35;;;9.15;;
82952;SDS011;74888;40.196;44.560;2024-02-21T00:37:15;16.00;;;7.82;;
82952;SDS011;74888;40.196;44.560;2024-02-21T00:39:41;17.92;;;8.40;;
82952;SDS011;74888;40.196;44.560;2024-02-21T00:42:07;17.42;;;7.28;;
82952;SDS011;74888;40.196;44.560;2024-02-21T00:44:33;14.98;;;7.53;;
82952;SDS011;74888;40.196;44.560;2024-02-21T00:46:59;17.73;;;7.10;;
82952;SDS011;74888;40.196;44.560;2024-02-21T00:49:24;16.20;;;7.28;;
82952;SDS011;74888;40.196;44.560;2024-02-21T00:51:50;13.40;;;5.47;;
82952;SDS011;74888;40.196;44.560;2024-02-21T00:54:15;12.38;;;5.75;;
82952;SDS011;74888;40.196;44.560;2024-02-21T00:56:41;9.75;;;5.05;;
82952;SDS011;74888;40.196;44.560;2024-02-21T00:59:07;10.57;;;4.72;;
82952;SDS011;74888;40.196;44.560;2024-02-21T01:01:33;9.05;;;4.13;;
82952;SDS011;74888;40.196;44.560;2024-02-21T01:03:59;8.98;;;4.20;;
82952;SDS011;74888;40.196;44.560;2024-02-21T01:06:25;9.73;;;4.15;;
82952;SDS011;74888;40.196;44.560;2024-02-21T01:08:50;8.73;;;4.03;;
82952;SDS011;74888;40.196;44.560;2024-02-21T01:11:16;12.05;;;4.43;;
82952;SDS011;74888;40.196;44.560;2024-02-21T01:13:42;10.45;;;4.22;;
82952;SDS011;74888;40.196;44.560;2024-02-21T01:16:07;8.65;;;3.88;;
82952;SDS011;74888;40.196;44.560;2024-02-21T01:18:33;9.05;;;3.70;;
82952;SDS011;74888;40.196;44.560;2024-02-21T01:20:59;12.48;;;4.60;;
82952;SDS011;74888;40.196;44.560;2024-02-21T01:23:25;10.35;;;3.95;;
82952;SDS011;74888;40.196;44.560;2024-02-21T01:25:50;9.85;;;4.28;;
82952;SDS011;74888;40.196;44.560;2024-02-21T01:28:16;9.60;;;4.55;;
82952;SDS011;74888;40.196;44.560;2024-02-21T01:30:42;14.45;;;5.22;;
82952;SDS011;74888;40.196;44.560;2024-02-21T01:33:07;10.63;;;4.82;;
82952;SDS011;74888;40.196;44.560;2024-02-21T01:35:34;12.35;;;5.35;;
82952;SDS011;74888;40.196;44.560;2024-02-21T01:38:00;13.63;;;5.38;;
82952;SDS011;74888;40.196;44.560;2024-02-21T01:40:25;14.35;;;6.40;;
82952;SDS011;74888;40.196;44.560;2024-02-21T01:42:51;14.40;;;6.97;;
82952;SDS011;74888;40.196;44.560;2024-02-21T01:45:20;17.23;;;7.03;;
82952;SDS011;74888;40.196;44.560;2024-02-21T01:47:45;15.00;;;7.85;;
82952;SDS011;74888;40.196;44.560;2024-02-21T01:50:11;17.38;;;8.10;;
82952;SDS011;74888;40.196;44.560;2024-02-21T01:52:38;17.20;;;7.55;;
82952;SDS011;74888;40.196;44.560;2024-02-21T01:55:04;14.52;;;6.70;;
82952;SDS011;74888;40.196;44.560;2024-02-21T01:57:31;15.38;;;6.68;;
82952;SDS011;74888;40.196;44.560;2024-02-21T01:59:57;13.35;;;6.65;;
82952;SDS011;74888;40.196;44.560;2024-02-21T02:02:23;11.80;;;5.45;;
82952;SDS011;74888;40.196;44.560;2024-02-21T02:04:49;11.73;;;5.78;;
82952;SDS011;74888;40.196;44.560;2024-02-21T02:07:17;14.25;;;6.15;;
82952;SDS011;74888;40.196;44.560;2024-02-21T02:09:42;18.55;;;6.32;;
82952;SDS011;74888;40.196;44.560;2024-02-21T02:12:08;10.07;;;4.95;;
82952;SDS011;74888;40.196;44.560;2024-02-21T02:14:34;11.50;;;5.38;;
82952;SDS011;74888;40.196;44.560;2024-02-21T02:16:59;14.00;;;6.60;;
82952;SDS011;74888;40.196;44.560;2024-02-21T02:19:25;17.70;;;7.82;;
82952;SDS011;74888;40.196;44.560;2024-02-21T02:21:52;16.40;;;6.85;;
82952;SDS011;74888;40.196;44.560;2024-02-21T02:24:21;18.63;;;8.45;;
82952;SDS011;74888;40.196;44.560;2024-02-21T02:26:50;19.08;;;9.20;;
82952;SDS011;74888;40.196;44.560;2024-02-21T02:29:16;16.98;;;8.38;;
82952;SDS011;74888;40.196;44.560;2024-02-21T02:31:42;21.23;;;7.45;;
82952;SDS011;74888;40.196;44.560;2024-02-21T02:34:08;17.58;;;7.10;;
82952;SDS011;74888;40.196;44.560;2024-02-21T02:36:35;19.10;;;8.38;;
82952;SDS011;74888;40.196;44.560;2024-02-21T02:39:01;18.40;;;8.00;;
82952;SDS011;74888;40.196;44.560;2024-02-21T02:41:26;18.40;;;7.60;;
82952;SDS011;74888;40.196;44.560;2024-02-21T02:43:52;17.92;;;8.35;;
82952;SDS011;74888;40.196;44.560;2024-02-21T02:46:17;14.77;;;7.70;;
82952;SDS011;74888;40.196;44.560;2024-02-21T02:48:43;14.98;;;7.25;;
82952;SDS011;74888;40.196;44.560;2024-02-21T02:51:10;15.90;;;7.13;;
82952;SDS011;74888;40.196;44.560;2024-02-21T02:53:35;18.92;;;7.82;;
82952;SDS011;74888;40.196;44.560;2024-02-21T02:56:01;19.10;;;7.95;;
82952;SDS011;74888;40.196;44.560;2024-02-21T02:58:27;20.55;;;7.55;;
82952;SDS011;74888;40.196;44.560;2024-02-21T03:00:53;18.00;;;7.57;;
82952;SDS011;74888;40.196;44.560;2024-02-21T03:03:19;16.40;;;6.63;;
82952;SDS011;74888;40.196;44.560;2024-02-21T03:05:45;13.75;;;6.53;;
82952;SDS011;74888;40.196;44.560;2024-02-21T03:08:11;16.73;;;7.15;;
82952;SDS011;74888;40.196;44.560;2024-02-21T03:10:37;16.52;;;6.32;;
82952;SDS011;74888;40.196;44.560;2024-02-21T03:13:02;17.55;;;6.78;;
82952;SDS011;74888;40.196;44.560;2024-02-21T03:15:30;18.85;;;6.93;;
82952;SDS011;74888;40.196;44.560;2024-02-21T03:17:55;12.98;;;6.28;;
82952;SDS011;74888;40.196;44.560;2024-02-21T03:20:21;15.55;;;7.15;;
82952;SDS011;74888;40.196;44.560;2024-02-21T03:22:47;13.40;;;5.93;;
82952;SDS011;74888;40.196;44.560;2024-02-21T03:25:13;14.93;;;6.57;;
82952;SDS011;74888;40.196;44.560;2024-02-21T03:27:40;12.95;;;6.45;;
82952;SDS011;74888;40.196;44.560;2024-02-21T03:30:05;14.80;;;6.28;;
82952;SDS011;74888;40.196;44.560;2024-02-21T03:32:34;12.63;;;6.07;;
82952;SDS011;74888;40.196;44.560;2024-02-21T03:35:00;15.75;;;6.82;;
82952;SDS011;74888;40.196;44.560;2024-02-21T03:37:26;16.38;;;7.30;;
82952;SDS011;74888;40.196;44.560;2024-02-21T03:39:51;19.10;;;7.53;;
82952;SDS011;74888;40.196;44.560;2024-02-21T03:42:17;18.48;;;7.00;;
82952;SDS011;74888;40.196;44.560;2024-02-21T03:44:42;17.30;;;7.47;;
82952;SDS011;74888;40.196;44.560;2024-02-21T03:47:08;15.05;;;6.95;;
82952;SDS011;74888;40.196;44.560;2024-02-21T03:49:35;13.65;;;6.70;;
82952;SDS011;74888;40.196;44.560;2024-02-21T03:52:01;17.67;;;7.75;;
82952;SDS011;74888;40.196;44.560;2024-02-21T03:54:27;16.63;;;7.55;;
82952;SDS011;74888;40.196;44.560;2024-02-21T03:56:52;17.13;;;7.88;;
82952;SDS011;74888;40.196;44.560;2024-02-21T03:59:18;17.55;;;8.57;;
82952;SDS011;74888;40.196;44.560;2024-02-21T04:01:43;22.92;;;8.90;;
82952;SDS011;74888;40.196;44.560;2024-02-21T04:04:09;18.92;;;7.70;;
82952;SDS011;74888;40.196;44.560;2024-02-21T04:06:35;17.65;;;8.32;;
82952;SDS011;74888;40.196;44.560;2024-02-21T04:09:01;25.13;;;8.57;;
82952;SDS011;74888;40.196;44.560;2024-02-21T04:11:27;18.75;;;8.82;;
82952;SDS011;74888;40.196;44.560;2024-02-21T04:13:53;28.42;;;9.52;;
82952;SDS011;74888;40.196;44.560;2024-02-21T04:16:18;31.73;;;10.40;;
82952;SDS011;74888;40.196;44.560;2024-02-21T04:18:44;31.45;;;12.40;;
82952;SDS011;74888;40.196;44.560;2024-02-21T04:21:10;53.65;;;18.75;;
82952;SDS011;74888;40.196;44.560;2024-02-21T04:23:39;80.00;;;26.20;;
82952;SDS011;74888;40.196;44.560;2024-02-21T04:26:05;78.30;;;27.20;;
82952;SDS011;74888;40.196;44.560;2024-02-21T04:28:30;77.35;;;24.52;;
82952;SDS011;74888;40.196;44.560;2024-02-21T04:30:56;45.22;;;16.52;;
82952;SDS011;74888;40.196;44.560;2024-02-21T04:33:21;29.27;;;12.43;;
82952;SDS011;74888;40.196;44.560;2024-02-21T04:35:47;38.15;;;11.73;;
82952;SDS011;74888;40.196;44.560;2024-02-21T04:38:13;20.73;;;9.13;;
82952;SDS011;74888;40.196;44.560;2024-02-21T04:40:39;22.90;;;9.32;;
82952;SDS011;74888;40.196;44.560;2024-02-21T04:43:05;36.20;;;16.38;;
82952;SDS011;74888;40.196;44.560;2024-02-21T04:45:31;37.65;;;17.38;;
82952;SDS011;74888;40.196;44.560;2024-02-21T04:47:56;37.15;;;14.50;;
82952;SDS011;74888;40.196;44.560;2024-02-21T04:50:22;28.08;;;10.80;;
82952;SDS011;74888;40.196;44.560;2024-02-21T04:52:47;26.67;;;10.30;;
82952;SDS011;74888;40.196;44.560;2024-02-21T04:55:13;27.13;;;10.07;;
82952;SDS011;74888;40.196;44.560;2024-02-21T04:57:39;24.10;;;9.98;;
82952;SDS011;74888;40.196;44.560;2024-02-21T05:00:05;21.55;;;9.10;;
82952;SDS011;74888;40.196;44.560;2024-02-21T05:02:31;26.35;;;10.95;;
82952;SDS011;74888;40.196;44.560;2024-02-21T05:04:57;24.70;;;9.75;;
82952;SDS011;74888;40.196;44.560;2024-02-21T05:07:22;21.27;;;10.07;;
82952;SDS011;74888;40.196;44.560;2024-02-21T05:09:48;33.15;;;10.05;;
82952;SDS011;74888;40.196;44.560;2024-02-21T05:12:14;21.25;;;8.77;;
82952;SDS011;74888;40.196;44.560;2024-02-21T05:14:39;19.13;;;8.98;;
82952;SDS011;74888;40.196;44.560;2024-02-21T05:17:05;23.60;;;9.57;;
82952;SDS011;74888;40.196;44.560;2024-02-21T05:19:31;18.48;;;8.35;;
82952;SDS011;74888;40.196;44.560;2024-02-21T05:21:56;21.30;;;8.65;;
82952;SDS011;74888;40.196;44.560;2024-02-21T05:24:22;27.80;;;10.65;;
82952;SDS011;74888;40.196;44.560;2024-02-21T05:26:47;33.28;;;12.40;;
82952;SDS011;74888;40.196;44.560;2024-02-21T05:29:13;35.20;;;11.75;;
82952;SDS011;74888;40.196;44.560;2024-02-21T05:34:16;22.52;;;10.43;;
82952;SDS011;74888;40.196;44.560;2024-02-21T05:36:42;28.17;;;12.00;;
82952;SDS011;74888;40.196;44.560;2024-02-21T05:39:08;29.27;;;10.88;;
82952;SDS011;74888;40.196;44.560;2024-02-21T05:41:33;30.30;;;11.98;;
82952;SDS011;74888;40.196;44.560;2024-02-21T05:43:59;26.20;;;11.50;;
82952;SDS011;74888;40.196;44.560;2024-02-21T05:46:24;34.17;;;12.60;;
82952;SDS011;74888;40.196;44.560;2024-02-21T05:48:50;30.83;;;12.95;;
82952;SDS011;74888;40.196;44.560;2024-02-21T05:51:16;30.65;;;13.23;;
82952;SDS011;74888;40.196;44.560;2024-02-21T05:53:41;26.33;;;12.00;;
82952;SDS011;74888;40.196;44.560;2024-02-21T05:56:13;23.50;;;9.93;;
82952;SDS011;74888;40.196;44.560;2024-02-21T05:58:39;23.98;;;9.98;;
82952;SDS011;74888;40.196;44.560;2024-02-21T06:01:05;23.42;;;10.25;;
82952;SDS011;74888;40.196;44.560;2024-02-21T06:03:32;21.33;;;8.95;;
82952;SDS011;74888;40.196;44.560;2024-02-21T06:05:58;19.55;;;8.77;;
82952;SDS011;74888;40.196;44.560;2024-02-21T06:08:24;20.83;;;7.40;;
82952;SDS011;74888;40.196;44.560;2024-02-21T06:10:50;15.80;;;7.38;;
82952;SDS011;74888;40.196;44.560;2024-02-21T06:13:19;19.88;;;7.20;;
82952;SDS011;74888;40.196;44.560;2024-02-21T06:15:48;14.20;;;6.80;;
82952;SDS011;74888;40.196;44.560;2024-02-21T06:18:15;19.25;;;7.00;;
82952;SDS011;74888;40.196;44.560;2024-02-21T06:20:42;21.50;;;8.07;;
82952;SDS011;74888;40.196;44.560;2024-02-21T06:23:08;21.73;;;8.18;;
82952;SDS011;74888;40.196;44.560;2024-02-21T06:25:34;19.52;;;8.60;;
82952;SDS011;74888;40.196;44.560;2024-02-21T06:27:59;21.08;;;7.90;;
82952;SDS011;74888;40.196;44.560;2024-02-21T06:30:25;20.95;;;7.57;;
82952;SDS011;74888;40.196;44.560;2024-02-21T06:32:51;20.75;;;8.38;;
82952;SDS011;74888;40.196;44.560;2024-02-21T06:35:17;33.90;;;7.95;;
82952;SDS011;74888;40.196;44.560;2024-02-21T06:37:43;17.75;;;8.85;;
82952;SDS011;74888;40.196;44.560;2024-02-21T06:40:10;19.77;;;7.25;;
82952;SDS011;74888;40.196;44.560;2024-02-21T06:42:36;16.85;;;7.72;;
82952;SDS011;74888;40.196;44.560;2024-02-21T06:45:01;14.48;;;6.55;;
82952;SDS011;74888;40.196;44.560;2024-02-21T06:47:27;19.08;;;7.30;;
82952;SDS011;74888;40.196;44.560;2024-02-21T06:49:53;17.48;;;7.28;;
82952;SDS011;74888;40.196;44.560;2024-02-21T06:52:18;15.98;;;7.55;;
82952;SDS011;74888;40.196;44.560;2024-02-21T06:54:48;19.42;;;7.43;;
82952;SDS011;74888;40.196;44.560;2024-02-21T06:57:14;21.02;;;7.60;;
82952;SDS011;74888;40.196;44.560;2024-02-21T06:59:42;14.07;;;6.93;;
82952;SDS011;74888;40.196;44.560;2024-02-21T07:02:08;20.33;;;8.55;;
82952;SDS011;74888;40.196;44.560;2024-02-21T07:04:34;16.65;;;7.50;;
82952;SDS011;74888;40.196;44.560;2024-02-21T07:07:00;27.63;;;8.98;;
82952;SDS011;74888;40.196;44.560;2024-02-21T07:09:26;19.80;;;7.90;;
82952;SDS011;74888;40.196;44.560;2024-02-21T07:11:53;18.05;;;7.45;;
82952;SDS011;74888;40.196;44.560;2024-02-21T07:14:19;17.23;;;7.57;;
82952;SDS011;74888;40.196;44.560;2024-02-21T07:16:45;20.25;;;8.38;;
82952;SDS011;74888;40.196;44.560;2024-02-21T07:19:10;23.45;;;9.38;;
82952;SDS011;74888;40.196;44.560;2024-02-21T07:21:36;27.98;;;11.32;;
82952;SDS011;74888;40.196;44.560;2024-02-21T07:24:03;30.05;;;12.15;;
82952;SDS011;74888;40.196;44.560;2024-02-21T07:26:30;32.10;;;13.25;;
82952;SDS011;74888;40.196;44.560;2024-02-21T07:28:56;36.95;;;13.93;;
82952;SDS011;74888;40.196;44.560;2024-02-21T07:31:22;34.80;;;15.45;;
82952;SDS011;74888;40.196;44.560;2024-02-21T07:33:47;31.42;;;15.98;;
82952;SDS011;74888;40.196;44.560;2024-02-21T07:36:15;37.85;;;17.77;;
82952;SDS011;74888;40.196;44.560;2024-02-21T07:38:41;43.47;;;19.27;;
82952;SDS011;74888;40.196;44.560;2024-02-21T07:41:07;38.80;;;18.13;;
82952;SDS011;74888;40.196;44.560;2024-02-21T07:43:33;38.72;;;17.38;;
82952;SDS011;74888;40.196;44.560;2024-02-21T07:45:58;36.53;;;18.38;;
82952;SDS011;74888;40.196;44.560;2024-02-21T07:48:24;43.58;;;19.25;;
82952;SDS011;74888;40.196;44.560;2024-02-21T07:50:50;41.90;;;17.73;;
82952;SDS011;74888;40.196;44.560;2024-02-21T07:53:16;32.13;;;16.30;;
82952;SDS011;74888;40.196;44.560;2024-02-21T07:55:42;43.83;;;17.50;;
82952;SDS011;74888;40.196;44.560;2024-02-21T07:58:07;39.08;;;17.17;;
82952;SDS011;74888;40.196;44.560;2024-02-21T08:00:33;38.70;;;15.43;;
82952;SDS011;74888;40.196;44.560;2024-02-21T08:02:59;31.40;;;14.43;;
82952;SDS011;74888;40.196;44.560;2024-02-21T08:05:24;28.95;;;13.77;;
82952;SDS011;74888;40.196;44.560;2024-02-21T08:07:50;32.17;;;13.93;;
82952;SDS011;74888;40.196;44.560;2024-02-21T08:10:15;34.65;;;13.82;;
82952;SDS011;74888;40.196;44.560;2024-02-21T08:12:41;37.03;;;13.52;;
82952;SDS011;74888;40.196;44.560;2024-02-21T08:15:07;30.58;;;13.95;;
82952;SDS011;74888;40.196;44.560;2024-02-21T08:17:35;31.02;;;11.68;;
82952;SDS011;74888;40.196;44.560;2024-02-21T08:20:02;25.17;;;11.00;;
82952;SDS011;74888;40.196;44.560;2024-02-21T08:22:29;28.27;;;11.45;;
82952;SDS011;74888;40.196;44.560;2024-02-21T08:24:55;22.77;;;11.27;;
82952;SDS011;74888;40.196;44.560;2024-02-21T08:27:21;25.85;;;9.60;;
82952;SDS011;74888;40.196;44.560;2024-02-21T08:29:47;18.48;;;8.80;;
82952;SDS011;74888;40.196;44.560;2024-02-21T08:32:12;14.40;;;6.72;;
82952;SDS011;74888;40.196;44.560;2024-02-21T08:34:38;17.52;;;7.43;;
82952;SDS011;74888;40.196;44.560;2024-02-21T08:37:03;17.20;;;8.25;;
82952;SDS011;74888;40.196;44.560;2024-02-21T08:39:29;21.45;;;8.30;;
82952;SDS011;74888;40.196;44.560;2024-02-21T08:41:55;15.45;;;6.88;;
82952;SDS011;74888;40.196;44.560;2024-02-21T08:44:25;16.60;;;6.72;;
82952;SDS011;74888;40.196;44.560;2024-02-21T08:46:53;18.10;;;6.85;;
82952;SDS011;74888;40.196;44.560;2024-02-21T08:49:18;15.18;;;6.55;;
82952;SDS011;74888;40.196;44.560;2024-02-21T08:51:44;14.68;;;6.30;;
82952;SDS011;74888;40.196;44.560;2024-02-21T08:54:09;16.58;;;7.38;;
82952;SDS011;74888;40.196;44.560;2024-02-21T08:56:35;19.65;;;7.60;;
82952;SDS011;74888;40.196;44.560;2024-02-21T08:59:01;15.70;;;7.70;;
82952;SDS011;74888;40.196;44.560;2024-02-21T09:01:27;24.63;;;7.20;;
82952;SDS011;74888;40.196;44.560;2024-02-21T09:03:53;14.40;;;6.82;;
82952;SDS011;74888;40.196;44.560;2024-02-21T09:06:21;16.80;;;7.22;;
82952;SDS011;74888;40.196;44.560;2024-02-21T09:08:47;18.52;;;7.25;;
82952;SDS011;74888;40.196;44.560;2024-02-21T09:11:13;17.58;;;6.82;;
82952;SDS011;74888;40.196;44.560;2024-02-21T09:13:39;16.27;;;6.68;;
82952;SDS011;74888;40.196;44.560;2024-02-21T09:16:05;13.60;;;6.45;;
82952;SDS011;74888;40.196;44.560;2024-02-21T09:18:31;17.42;;;7.18;;
82952;SDS011;74888;40.196;44.560;2024-02-21T09:20:56;17.50;;;6.90;;
82952;SDS011;74888;40.196;44.560;2024-02-21T09:23:25;17.45;;;7.38;;
82952;SDS011;74888;40.196;44.560;2024-02-21T09:25:50;17.42;;;7.95;;
82952;SDS011;74888;40.196;44.560;2024-02-21T09:28:16;15.68;;;6.43;;
82952;SDS011;74888;40.196;44.560;2024-02-21T09:30:42;30.17;;;9.40;;
82952;SDS011;74888;40.196;44.560;2024-02-21T09:33:07;16.52;;;6.03;;
82952;SDS011;74888;40.196;44.560;2024-02-21T09:35:33;13.88;;;6.13;;
82952;SDS011;74888;40.196;44.560;2024-02-21T09:37:59;17.75;;;7.13;;
82952;SDS011;74888;40.196;44.560;2024-02-21T09:40:25;18.02;;;7.65;;
82952;SDS011;74888;40.196;44.560;2024-02-21T09:42:54;19.52;;;8.10;;
82952;SDS011;74888;40.196;44.560;2024-02-21T09:45:32;22.25;;;10.07;;
82952;SDS011;74888;40.196;44.560;2024-02-21T09:48:09;17.75;;;8.43;;
82952;SDS011;74888;40.196;44.560;2024-02-21T09:50:36;19.13;;;8.85;;
82952;SDS011;74888;40.196;44.560;2024-02-21T09:53:06;19.02;;;7.82;;
82952;SDS011;74888;40.196;44.560;2024-02-21T09:55:32;19.88;;;8.25;;
82952;SDS011;74888;40.196;44.560;2024-02-21T09:58:01;17.95;;;7.90;;
82952;SDS011;74888;40.196;44.560;2024-02-21T10:00:29;15.55;;;7.88;;
82952;SDS011;74888;40.196;44.560;2024-02-21T10:02:55;18.45;;;8.55;;
82952;SDS011;74888;40.196;44.560;2024-02-21T10:05:20;15.43;;;7.32;;
82952;SDS011;74888;40.196;44.560;2024-02-21T10:07:46;19.10;;;8.32;;
82952;SDS011;74888;40.196;44.560;2024-02-21T10:10:16;17.88;;;7.63;;
82952;SDS011;74888;40.196;44.560;2024-02-21T10:12:51;22.95;;;7.93;;
82952;SDS011;74888;40.196;44.560;2024-02-21T10:15:22;18.02;;;6.80;;
82952;SDS011;74888;40.196;44.560;2024-02-21T10:17:50;18.15;;;7.60;;
82952;SDS011;74888;40.196;44.560;2024-02-21T10:20:24;25.42;;;7.97;;
82952;SDS011;74888;40.196;44.560;2024-02-21T10:23:00;20.38;;;8.18;;
82952;SDS011;74888;40.196;44.560;2024-02-21T10:25:33;21.40;;;8.07;;
82952;SDS011;74888;40.196;44.560;2024-02-21T10:28:12;21.83;;;9.30;;
82952;SDS011;74888;40.196;44.560;2024-02-21T10:30:38;23.42;;;10.00;;
82952;SDS011;74888;40.196;44.560;2024-02-21T10:33:03;19.20;;;8.65;;
82952;SDS011;74888;40.196;44.560;2024-02-21T10:35:31;17.70;;;8.18;;
82952;SDS011;74888;40.196;44.560;2024-02-21T10:37:58;19.02;;;8.90;;
82952;SDS011;74888;40.196;44.560;2024-02-21T10:42:51;21.35;;;9.07;;
82952;SDS011;74888;40.196;44.560;2024-02-21T10:48:13;19.23;;;10.23;;
82952;SDS011;74888;40.196;44.560;2024-02-21T10:56:30;19.75;;;8.85;;
82952;SDS011;74888;40.196;44.560;2024-02-21T10:59:01;19.52;;;8.77;;
82952;SDS011;74888;40.196;44.560;2024-02-21T11:01:28;13.75;;;7.55;;
82952;SDS011;74888;40.196;44.560;2024-02-21T11:03:56;15.27;;;7.13;;
82952;SDS011;74888;40.196;44.560;2024-02-21T11:06:25;19.77;;;7.97;;
82952;SDS011;74888;40.196;44.560;2024-02-21T11:09:00;19.27;;;7.13;;
82952;SDS011;74888;40.196;44.560;2024-02-21T11:11:26;20.52;;;6.95;;
82952;SDS011;74888;40.196;44.560;2024-02-21T11:13:52;26.23;;;7.82;;
82952;SDS011;74888;40.196;44.560;2024-02-21T11:16:21;12.55;;;6.43;;
82952;SDS011;74888;40.196;44.560;2024-02-21T11:18:48;16.52;;;7.60;;
82952;SDS011;74888;40.196;44.560;2024-02-21T11:21:14;18.77;;;6.47;;
82952;SDS011;74888;40.196;44.560;2024-02-21T11:23:40;15.85;;;7.10;;
82952;SDS011;74888;40.196;44.560;2024-02-21T11:26:06;15.55;;;7.18;;
82952;SDS011;74888;40.196;44.560;2024-02-21T11:28:33;15.63;;;6.88;;
82952;SDS011;74888;40.196;44.560;2024-02-21T11:31:09;14.00;;;6.97;;
82952;SDS011;74888;40.196;44.560;2024-02-21T11:33:43;24.60;;;9.38;;
82952;SDS011;74888;40.196;44.560;2024-02-21T11:36:22;20.20;;;7.90;;
82952;SDS011;74888;40.196;44.560;2024-02-21T11:38:51;23.50;;;8.40;;
82952;SDS011;74888;40.196;44.560;2024-02-21T11:41:18;19.17;;;7.45;;
82952;SDS011;74888;40.196;44.560;2024-02-21T11:43:46;13.60;;;5.18;;
82952;SDS011;74888;40.196;44.560;2024-02-21T11:46:14;12.90;;;5.10;;
82952;SDS011;74888;40.196;44.560;2024-02-21T11:48:41;14.85;;;5.05;;
82952;SDS011;74888;40.196;44.560;2024-02-21T11:51:12;10.50;;;5.35;;
82952;SDS011;74888;40.196;44.560;2024-02-21T11:53:47;11.43;;;5.28;;
82952;SDS011;74888;40.196;44.560;2024-02-21T11:56:13;15.90;;;7.20;;
82952;SDS011;74888;40.196;44.560;2024-02-21T11:58:39;15.88;;;7.68;;
82952;SDS011;74888;40.196;44.560;2024-02-21T12:01:04;13.02;;;6.68;;
82952;SDS011;74888;40.196;44.560;2024-02-21T12:03:32;15.35;;;6.43;;
82952;SDS011;74888;40.196;44.560;2024-02-21T12:06:00;15.05;;;6.18;;
82952;SDS011;74888;40.196;44.560;2024-02-21T12:08:28;12.45;;;5.15;;
82952;SDS011;74888;40.196;44.560;2024-02-21T12:13:41;13.45;;;5.47;;
82952;SDS011;74888;40.196;44.560;2024-02-21T12:16:07;14.18;;;5.72;;
82952;SDS011;74888;40.196;44.560;2024-02-21T12:18:32;11.45;;;4.38;;
82952;SDS011;74888;40.196;44.560;2024-02-21T12:20:59;11.45;;;4.30;;
82952;SDS011;74888;40.196;44.560;2024-02-21T12:23:29;10.48;;;4.78;;
82952;SDS011;74888;40.196;44.560;2024-02-21T12:25:55;10.25;;;5.30;;
82952;SDS011;74888;40.196;44.560;2024-02-21T12:28:20;15.38;;;6.25;;
82952;SDS011;74888;40.196;44.560;2024-02-21T12:30:47;10.07;;;5.05;;
82952;SDS011;74888;40.196;44.560;2024-02-21T12:33:13;12.30;;;5.18;;
82952;SDS011;74888;40.196;44.560;2024-02-21T12:35:41;9.18;;;4.82;;
82952;SDS011;74888;40.196;44.560;2024-02-21T12:38:07;9.23;;;5.07;;
82952;SDS011;74888;40.196;44.560;2024-02-21T12:40:32;18.02;;;5.88;;
82952;SDS011;74888;40.196;44.560;2024-02-21T12:42:59;9.85;;;4.70;;
82952;SDS011;74888;40.196;44.560;2024-02-21T12:45:28;7.90;;;3.88;;
82952;SDS011;74888;40.196;44.560;2024-02-21T12:47:53;10.02;;;4.25;;
82952;SDS011;74888;40.196;44.560;2024-02-21T12:50:19;9.90;;;3.95;;
82952;SDS011;74888;40.196;44.560;2024-02-21T12:52:45;12.43;;;4.38;;
82952;SDS011;74888;40.196;44.560;2024-02-21T12:55:11;8.32;;;3.80;;
82952;SDS011;74888;40.196;44.560;2024-02-21T12:57:38;11.15;;;4.60;;
82952;SDS011;74888;40.196;44.560;2024-02-21T13:00:05;13.18;;;4.30;;
82952;SDS011;74888;40.196;44.560;2024-02-21T13:02:33;11.40;;;5.00;;
82952;SDS011;74888;40.196;44.560;2024-02-21T13:05:00;7.22;;;3.58;;
82952;SDS011;74888;40.196;44.560;2024-02-21T13:07:27;9.63;;;4.13;;
82952;SDS011;74888;40.196;44.560;2024-02-21T13:09:53;16.42;;;5.38;;
82952;SDS011;74888;40.196;44.560;2024-02-21T13:12:19;12.20;;;5.53;;
82952;SDS011;74888;40.196;44.560;2024-02-21T13:14:45;11.25;;;5.32;;
82952;SDS011;74888;40.196;44.560;2024-02-21T13:17:10;20.63;;;6.30;;
82952;SDS011;74888;40.196;44.560;2024-02-21T13:19:36;12.68;;;6.43;;
82952;SDS011;74888;40.196;44.560;2024-02-21T13:22:01;12.35;;;5.53;;
82952;SDS011;74888;40.196;44.560;2024-02-21T13:24:27;15.85;;;6.07;;
82952;SDS011;74888;40.196;44.560;2024-02-21T13:26:53;17.65;;;6.88;;
82952;SDS011;74888;40.196;44.560;2024-02-21T13:29:18;15.60;;;6.05;;
82952;SDS011;74888;40.196;44.560;2024-02-21T13:31:45;18.73;;;6.53;;
82952;SDS011;74888;40.196;44.560;2024-02-21T13:34:11;16.33;;;6.95;;
82952;SDS011;74888;40.196;44.560;2024-02-21T13:36:37;18.42;;;6.72;;
82952;SDS011;74888;40.196;44.560;2024-02-21T13:39:02;17.73;;;6.95;;
82952;SDS011;74888;40.196;44.560;2024-02-21T13:41:30;17.67;;;7.35;;
82952;SDS011;74888;40.196;44.560;2024-02-21T13:43:56;19.20;;;8.32;;
82952;SDS011;74888;40.196;44.560;2024-02-21T13:46:21;42.60;;;13.48;;
82952;SDS011;74888;40.196;44.560;2024-02-21T13:48:47;17.23;;;6.80;;
82952;SDS011;74888;40.196;44.560;2024-02-21T13:51:13;18.20;;;6.40;;
82952;SDS011;74888;40.196;44.560;2024-02-21T13:53:39;15.50;;;7.30;;
82952;SDS011;74888;40.196;44.560;2024-02-21T13:56:05;17.02;;;7.75;;
82952;SDS011;74888;40.196;44.560;2024-02-21T13:58:33;14.45;;;6.22;;
82952;SDS011;74888;40.196;44.560;2024-02-21T14:01:00;14.02;;;6.15;;
82952;SDS011;74888;40.196;44.560;2024-02-21T14:03:26;12.27;;;6.50;;
82952;SDS011;74888;40.196;44.560;2024-02-21T14:05:52;27.58;;;8.45;;
82952;SDS011;74888;40.196;44.560;2024-02-21T14:08:17;18.20;;;7.00;;
82952;SDS011;74888;40.196;44.560;2024-02-21T14:10:43;20.50;;;6.63;;
82952;SDS011;74888;40.196;44.560;2024-02-21T14:13:08;15.88;;;6.88;;
82952;SDS011;74888;40.196;44.560;2024-02-21T14:15:34;18.85;;;6.95;;
82952;SDS011;74888;40.196;44.560;2024-02-21T14:18:01;15.77;;;6.75;;
82952;SDS011;74888;40.196;44.560;2024-02-21T14:20:27;27.48;;;7.85;;
82952;SDS011;74888;40.196;44.560;2024-02-21T14:22:53;22.42;;;7.25;;
82952;SDS011;74888;40.196;44.560;2024-02-21T14:25:19;25.90;;;8.45;;
82952;SDS011;74888;40.196;44.560;2024-02-21T14:27:44;18.02;;;7.55;;
82952;SDS011;74888;40.196;44.560;2024-02-21T14:30:10;21.02;;;7.22;;
82952;SDS011;74888;40.196;44.560;2024-02-21T14:32:36;15.05;;;7.63;;
82952;SDS011;74888;40.196;44.560;2024-02-21T14:35:02;21.63;;;7.45;;
82952;SDS011;74888;40.196;44.560;2024-02-21T14:37:28;23.38;;;9.18;;